createdAt,value
2023-01-11T00:01:12.649Z,1.00
2023-01-11T00:06:15.963Z,1.00
2023-01-11T00:11:19.605Z,1.00
2023-01-11T00:16:24.567Z,95.10
2023-01-11T00:21:27.976Z,99.90
2023-01-11T00:26:31.281Z,99.90
2023-01-11T00:31:36.018Z,99.90
2023-01-11T00:36:39.330Z,1.00
2023-01-11T00:41:59.931Z,1.00
2023-01-11T00:47:22.029Z,1.00
2023-01-11T00:52:25.399Z,1.00
2023-01-11T00:57:28.780Z,99.90
2023-01-11T01:02:35.074Z,1.00
2023-01-11T01:07:38.682Z,99.90
2023-01-11T01:12:59.377Z,25.70
2023-01-11T01:18:04.053Z,1.00
2023-01-11T01:23:07.326Z,1.00
2023-01-11T01:28:10.567Z,17.90
2023-01-11T01:33:15.179Z,99.60
2023-01-11T01:38:18.888Z,99.90
2023-01-11T01:43:22.169Z,99.90
2023-01-11T01:48:28.533Z,99.90
2023-01-11T01:53:37.205Z,1.00
2023-01-11T01:58:43.597Z,59.10
2023-01-11T02:03:49.214Z,1.00
2023-01-11T02:09:00.105Z,1.00
2023-01-11T02:14:07.765Z,1.00
2023-01-11T02:19:26.066Z,1.00
2023-01-11T02:24:48.731Z,1.00
2023-01-11T02:30:04.562Z,1.00
2023-01-11T02:35:18.233Z,1.00
2023-01-11T02:40:27.459Z,1.00
2023-01-11T02:45:42.386Z,1.00
2023-01-11T02:50:52.186Z,1.00
2023-01-11T02:55:58.417Z,1.00
2023-01-11T03:01:03.315Z,1.00
2023-01-11T03:06:14.371Z,1.00
2023-01-11T03:11:46.152Z,1.00
2023-01-11T03:16:56.870Z,1.00
2023-01-11T03:22:07.011Z,1.00
2023-01-11T03:27:18.681Z,1.00
2023-01-11T03:32:32.308Z,1.00
2023-01-11T03:37:39.305Z,1.00
2023-01-11T03:42:59.480Z,99.90
2023-01-11T03:48:06.093Z,1.00
2023-01-11T03:53:11.640Z,99.90
2023-01-11T03:58:15.406Z,99.90
2023-01-11T04:03:20.096Z,1.00
2023-01-11T04:08:23.367Z,99.90
2023-01-11T04:13:26.662Z,99.90
2023-01-11T04:18:31.454Z,1.00
2023-01-11T04:23:34.695Z,99.90
2023-01-11T04:28:37.943Z,1.00
2023-01-11T04:33:42.599Z,1.00
2023-01-11T04:38:45.845Z,1.00
2023-01-11T04:43:49.140Z,1.00
2023-01-11T04:48:53.924Z,1.00
2023-01-11T04:53:57.162Z,99.90
2023-01-11T04:59:00.736Z,99.90
2023-01-11T05:04:05.647Z,99.90
2023-01-11T05:09:13.350Z,99.90
2023-01-11T05:14:17.350Z,99.90
2023-01-11T05:19:22.882Z,99.90
2023-01-11T05:24:26.195Z,99.90
2023-01-11T05:29:29.686Z,99.90
2023-01-11T05:34:34.416Z,99.90
2023-01-11T05:39:37.692Z,99.90
2023-01-11T05:44:58.682Z,99.90
2023-01-11T05:50:03.305Z,99.90
2023-01-11T05:55:07.886Z,99.90
2023-01-11T06:00:12.761Z,99.90
2023-01-11T06:05:17.728Z,99.90
2023-01-11T06:10:21.023Z,99.90
2023-01-11T06:15:24.316Z,99.90
2023-01-11T06:20:28.947Z,99.90
2023-01-11T06:25:32.918Z,99.90
2023-01-11T06:30:36.327Z,99.90
2023-01-11T06:35:42.610Z,99.90
2023-01-11T06:40:53.360Z,99.90
2023-01-11T06:45:57.301Z,99.90
2023-01-11T06:51:02.007Z,99.90
2023-01-11T06:56:05.741Z,99.90
2023-01-11T07:01:09.352Z,99.90
2023-01-11T07:06:14.359Z,99.90
2023-01-11T07:11:17.658Z,99.90
2023-01-11T07:16:21.814Z,99.90
2023-01-11T07:21:26.513Z,99.90
2023-01-11T07:26:29.929Z,99.90
2023-01-11T07:31:33.270Z,99.90
2023-01-11T07:36:39.725Z,99.90
2023-01-11T07:42:00.324Z,99.90
2023-01-11T07:47:03.677Z,99.90
2023-01-11T07:52:09.317Z,99.90
2023-01-11T07:57:12.781Z,99.90
2023-01-11T08:02:16.127Z,99.90
2023-01-11T08:07:20.814Z,99.90
2023-01-11T08:12:41.719Z,99.90
2023-01-11T08:17:44.972Z,99.90
2023-01-11T08:22:49.656Z,99.90
2023-01-11T08:27:53.360Z,99.90
2023-01-11T08:32:57.783Z,99.90
2023-01-11T08:38:02.449Z,99.90
2023-01-11T08:43:05.718Z,99.90
2023-01-11T08:48:09.008Z,99.90
2023-01-11T08:53:13.806Z,99.90
2023-01-11T08:58:17.510Z,99.90
2023-01-11T09:03:20.982Z,99.90
2023-01-11T09:08:26.461Z,99.90
2023-01-11T09:13:29.725Z,99.90
2023-01-11T09:18:33.021Z,99.90
2023-01-11T09:23:38.203Z,99.90
2023-01-11T09:28:41.681Z,99.90
2023-01-11T09:33:44.918Z,99.90
2023-01-11T09:38:50.594Z,99.90
2023-01-11T09:44:02.276Z,99.90
2023-01-11T09:49:07.687Z,99.90
2023-01-11T09:54:19.456Z,99.90
2023-01-11T09:59:31.117Z,99.90
2023-01-11T10:04:50.227Z,99.90
2023-01-11T10:18:35.336Z,99.90
2023-01-11T10:21:06.832Z,99.90
2023-01-11T10:26:25.335Z,99.90
2023-01-11T10:31:47.414Z,99.90
2023-01-11T10:37:11.006Z,99.90
2023-01-11T10:42:21.388Z,99.90
2023-01-11T10:47:30.620Z,1.00
2023-01-11T10:52:41.567Z,23.80
2023-01-11T10:58:00.370Z,1.00
2023-01-11T11:03:39.611Z,1.00
2023-01-11T11:08:51.800Z,1.00
2023-01-11T11:14:01.973Z,70.80
2023-01-11T11:19:05.234Z,99.90
2023-01-11T11:24:17.815Z,58.80
2023-01-11T11:29:30.538Z,1.00
2023-01-11T11:34:33.772Z,1.00
2023-01-11T11:39:37.036Z,1.00
2023-01-11T11:44:41.677Z,1.00
2023-01-11T11:49:45.100Z,1.00
2023-01-11T11:54:52.915Z,1.00
2023-01-11T12:00:03.878Z,1.00
2023-01-11T12:05:10.906Z,1.00
2023-01-11T12:10:16.819Z,14.60
2023-01-11T12:15:24.642Z,90.60
2023-01-11T12:20:31.669Z,21.90
2023-01-11T12:25:42.607Z,1.00
2023-01-11T12:30:57.081Z,9.80
2023-01-11T12:36:05.912Z,40.10
2023-01-11T12:41:43.950Z,1.00
2023-01-11T12:47:11.224Z,1.00
2023-01-11T12:52:39.341Z,75.70
2023-01-11T12:58:00.098Z,87.00
2023-01-11T13:03:20.525Z,99.90
2023-01-11T13:08:32.529Z,41.60
2023-01-11T13:13:46.226Z,16.60
2023-01-11T13:18:59.190Z,39.30
2023-01-11T13:24:06.685Z,6.20
2023-01-11T13:29:16.789Z,20.40
2023-01-11T13:34:27.690Z,42.80
2023-01-11T13:39:35.768Z,97.00
2023-01-11T13:44:45.723Z,99.90
2023-01-11T13:50:06.215Z,99.90
2023-01-11T13:55:20.771Z,99.90
2023-01-11T14:00:32.765Z,99.90
2023-01-11T14:05:45.807Z,99.90
2023-01-11T14:10:57.301Z,99.90
2023-01-11T14:16:09.035Z,99.90
2023-01-11T14:21:23.248Z,99.90
2023-01-11T14:26:58.723Z,99.90
2023-01-11T14:32:15.360Z,99.90
2023-01-11T14:37:42.271Z,99.90
2023-01-11T14:43:26.079Z,99.90
2023-01-11T14:48:36.080Z,99.90
2023-01-11T14:53:44.655Z,99.90
2023-01-11T14:59:04.115Z,99.90
2023-01-11T15:04:22.395Z,99.90
2023-01-11T15:09:47.189Z,99.90
2023-01-11T15:14:54.432Z,99.90
2023-01-11T15:20:08.245Z,99.90
2023-01-11T15:25:23.930Z,99.90
2023-01-11T15:30:39.222Z,99.90
2023-01-11T15:35:42.512Z,99.90
2023-01-11T15:40:47.594Z,99.90
2023-01-11T15:46:46.849Z,99.90
2023-01-11T15:52:12.064Z,99.90
2023-01-11T15:57:44.858Z,99.90
2023-01-11T16:03:25.535Z,99.90
2023-01-11T16:08:32.368Z,99.90
2023-01-11T16:13:54.211Z,99.90
2023-01-11T16:18:59.983Z,99.90
2023-01-11T16:24:06.059Z,99.90
2023-01-11T16:29:22.132Z,99.90
2023-01-11T16:34:25.685Z,99.90
2023-01-11T16:39:34.230Z,99.90
2023-01-11T16:44:45.684Z,99.90
2023-01-11T16:49:52.351Z,99.90
2023-01-11T16:54:56.807Z,99.90
2023-01-11T17:00:04.984Z,99.90
2023-01-11T17:05:19.735Z,99.90
2023-01-11T17:10:25.125Z,99.90
2023-01-11T17:15:34.268Z,99.90
2023-01-11T17:20:37.543Z,99.90
2023-01-11T17:25:44.911Z,99.90
2023-01-11T17:30:52.634Z,99.90
2023-01-11T17:35:56.387Z,99.90
2023-01-11T17:41:01.353Z,99.90
2023-01-11T17:46:06.568Z,99.90
2023-01-11T17:51:09.872Z,99.90
2023-01-11T17:56:39.465Z,99.90
2023-01-11T18:01:48.202Z,99.90
2023-01-11T18:06:54.158Z,99.90
2023-01-11T18:12:08.059Z,99.90
2023-01-11T18:17:36.192Z,99.90
2023-01-11T18:22:41.975Z,99.90
2023-01-11T18:27:47.420Z,99.90
2023-01-11T18:32:50.666Z,99.90
2023-01-11T18:37:53.920Z,99.90
2023-01-11T18:42:58.500Z,99.90
2023-01-11T18:48:01.712Z,99.90
2023-01-11T18:53:04.893Z,99.90
2023-01-11T18:58:10.219Z,99.90
2023-01-11T19:08:22.103Z,99.90
2023-01-11T19:13:26.726Z,99.90
2023-01-11T19:18:30.302Z,99.90
2023-01-11T19:23:35.312Z,99.90
2023-01-11T19:28:39.935Z,99.90
2023-01-11T19:33:43.286Z,99.90
2023-01-11T19:38:46.562Z,99.90
2023-01-11T19:43:51.191Z,99.90
2023-01-11T19:48:54.709Z,99.90
2023-01-11T19:54:01.035Z,99.90
2023-01-11T19:59:05.763Z,99.90
2023-01-11T20:04:10.927Z,99.90
2023-01-11T20:09:14.226Z,99.90
2023-01-11T20:14:18.941Z,99.90
2023-01-11T20:19:22.227Z,99.90
2023-01-11T20:24:29.585Z,99.90
2023-01-11T20:29:34.471Z,99.90
2023-01-11T20:34:37.740Z,99.90
2023-01-11T20:39:40.992Z,99.90
2023-01-11T20:44:45.583Z,99.90
2023-01-11T20:49:48.797Z,99.90
2023-01-11T20:54:52.040Z,99.90
2023-01-11T20:59:56.803Z,99.90
2023-01-11T21:05:00.207Z,99.90
2023-01-11T21:10:03.792Z,99.90
2023-01-11T21:15:10.894Z,99.90
2023-01-11T21:20:14.571Z,99.90
2023-01-11T21:25:18.298Z,99.90
2023-01-11T21:30:23.458Z,99.90
2023-01-11T21:35:27.183Z,99.90
2023-01-11T21:40:31.997Z,99.90
2023-01-11T21:45:36.650Z,99.90
2023-01-11T21:50:39.944Z,99.90
2023-01-11T21:55:43.324Z,99.90
2023-01-11T22:00:48.260Z,99.90
2023-01-11T22:05:52.458Z,99.90
2023-01-11T22:10:59.856Z,99.90
2023-01-11T22:16:05.932Z,99.90
2023-01-11T22:21:11.660Z,99.90
2023-01-11T22:26:16.619Z,99.90
2023-01-11T22:31:21.622Z,99.90
2023-01-11T22:36:26.038Z,99.90
2023-01-11T22:41:29.394Z,99.90
2023-01-11T22:46:34.092Z,99.90
2023-01-11T22:51:37.574Z,99.90
2023-01-11T22:56:41.449Z,99.90
2023-01-11T23:01:46.047Z,99.90
2023-01-11T23:06:49.318Z,99.90
2023-01-11T23:12:10.362Z,99.90
2023-01-11T23:17:15.597Z,99.90
2023-01-11T23:22:18.873Z,99.90
2023-01-11T23:27:22.106Z,99.90
2023-01-11T23:32:27.653Z,99.90
2023-01-11T23:37:31.003Z,99.90
2023-01-11T23:42:35.698Z,99.90
2023-01-11T23:47:40.275Z,99.90
2023-01-11T23:52:43.607Z,99.90
2023-01-11T23:58:06.833Z,99.90
